Terminal Aerodrome Forecast
Issued by NWS Amarillo, TX

Home | Current Version | Previous Version | Text Only | Print | Product List | Glossary On
Versions: 1 2 3 4 5 6 7 8 9 10 11 12 13 14 15 16 17 18 19 20 21 22 23 24 25 26 27 28 29 30
654
FTUS44 KAMA 171136
TAFAMA
TAF
KAMA 171136Z 1712/1812 33009KT P6SM SCT010
      TEMPO 1712/1714 BKN010
     FM171600 31006KT P6SM FEW009 SCT060 SCT200
     FM172300 16008KT P6SM SCT040 BKN120
     FM180600 19009KT P6SM BKN025 OVC040=

USA.gov is the U.S. government's official web portal to all federal, state and local government web resources and services.